Aviation Digital Data Service (ADDS)

Output produced by METARs form (0640 UTC 24 March 2019)
found at http://www.aviationweather.gov/metar/data/
 
KAXA 240635Z AUTO 12005KT 6SM HZ SCT019 BKN033 OVC046 07/04 A3005 RMK AO2 PWINO
KAMW 240553Z AUTO 12008KT 10SM -RA OVC036 06/04 A3005 RMK AO2 SLP175 P0002 60003 T00610039 10100 20061 401281039 58012 $
KIKV 240635Z AUTO 14007KT 10SM BKN037 OVC043 07/04 A3005 RMK AO2
KAIO 240635Z AUTO 13007KT 10SM BKN015 OVC021 09/09 A2998 RMK AO2
KADU 240635Z AUTO 00000KT 10SM SCT015 OVC028 07/04 A3000 RMK AO2
KBRL 240553Z AUTO 16007KT 10SM SCT037 BKN046 OVC060 09/01 A3012 RMK AO2 SLP202 T00890011 10106 20083 401330000 58004
KBRL 240520Z 2406/2506 14005KT P6SM VCSH OVC050 
     FM240700 13009KT 6SM -SHRA BKN025 OVC040 
     FM241000 13009KT 3SM -SHRA BR BKN007 OVC020 
     FM241700 08007KT 5SM -SHRA BR SCT009 OVC015 
     FM250300 04011KT 6SM BR OVC020
       
KCIN 240635Z AUTO 11003KT 10SM OVC024 06/05 A3001 RMK AO2
KCID 240552Z AUTO 13008KT 10SM SCT050 OVC065 06/03 A3010 RMK AO2 RAE30 SLP195 P0000 60000 T00610033 10094 20061 401281039 58007
KCID 240520Z 2406/2506 14007KT 6SM -SHRA BKN035 OVC050 
     FM241000 12005KT 3SM -SHRA BR BKN009 OVC025 
     FM242000 04005KT 5SM -SHRA BR SCT009 OVC015 
     FM250300 03013KT 6SM BR OVC025
       
KTVK 240635Z AUTO 11007KT 8SM -RA OVC041 07/06 A3007 RMK AO2
KCNC 240635Z AUTO 14010KT 10SM OVC036 08/07 A3003 RMK AO2
KCCY 240535Z AUTO 11006KT 10SM FEW050 BKN070 OVC085 06/01 A3010 RMK AO2
KCKP 240635Z AUTO 07004KT 10SM OVC033 06/04 A3002 RMK AO2 T00580040
KICL 240635Z AUTO 16008G14KT 10SM OVC016 10/09 A3000 RMK AO2
KCAV 240635Z AUTO 09009KT 10SM BKN041 OVC047 06/03 A3005 RMK AO2 PWINO
KCWI 240556Z AUTO 14007KT 10SM SCT095 07/01 A3015 RMK AO2 SLP238 T00670011 10094 20067 401331033 58006
KCBF 240635Z AUTO 13007KT 10SM OVC012 09/09 A2996 RMK AO2
KCSQ 240635Z AUTO 15008KT 10SM OVC020 09/09 A3000 RMK AO2
KDVN 240552Z AUTO 16009KT 10SM OVC090 08/00 A3015 RMK AO2 SLP210 T00780000 10106 20067 401331022 58008
KDEH 240635Z AUTO 00000KT 10SM SCT046 BKN075 OVC110 06/01 A3011 RMK AO2
KDNS 240635Z AUTO 11007KT 10SM SCT019 OVC028 07/05 A3000 RMK AO2
KDSM 240554Z 09007KT 10SM BKN022 OVC040 08/03 A3004 RMK AO2 RAE06 SLP175 P0000 60006 T00780033 10111 20078 401280000 58011
KDSM 240520Z 2406/2506 12006KT P6SM -RA OVC035 
     FM240800 12005KT P6SM -RA OVC025 
     FM241000 12005KT P6SM -RA OVC010 
     FM241500 08005KT 4SM -RA BR OVC008 
     FM241800 04006KT 4SM BR VCSH OVC008 
     FM242300 02008KT P6SM OVC015
       
KDBQ 240553Z AUTO 16008KT 10SM FEW120 06/00 A3013 RMK AO2 SLP210 T00560000 10089 20056 401171022 58004
KDBQ 240520Z 2406/2506 15007KT P6SM OVC090 
     FM241000 13005KT 6SM -SHRA BKN035 OVC050 
     FM241200 09005KT 3SM -RA BR BKN007 OVC020 
     FM242100 03009KT 5SM -SHRA BR SCT009 OVC015 
     FM250300 03013KT 6SM BR OVC020
       
KEST 240552Z AUTO 09005KT 10SM SCT065 BKN080 04/02 A3006 RMK AO2 SLP187 T00390022 10072 20039 401001022 58005
KFFL 240635Z AUTO 14011KT 9SM FEW046 BKN055 OVC070 08/03 A3008 RMK AO2 PWINO
KFXY 240635Z AUTO 11006KT 10SM SCT028 OVC035 06/02 A3008 RMK AO2
KFOD 240620Z AUTO 08007KT 10SM BKN030 OVC037 06/03 A3005 RMK AO2
KFOD 240520Z 2406/2506 12007KT P6SM VCSH OVC035 
     FM240800 11007KT P6SM -RA OVC030 
     FM241100 09006KT 6SM -RA OVC015 
     FM241200 08006KT 4SM -RA BR OVC008 
     FM241700 04010KT P6SM VCSH OVC008 
     FM241900 04010KT P6SM VCSH OVC010 
     FM242200 03011KT P6SM OVC020
       
KFSW 240635Z AUTO 16008KT 10SM SCT032 BKN060 OVC070 09/04 A3012 RMK AO2
KGGI 240635Z AUTO 11008KT 10SM OVC045 06/04 A3007 RMK AO2 T00630037
KHPT 240635Z AUTO 00000KT 10SM BKN025 OVC031 05/00 A3007 RMK AO2
KHNR 240635Z AUTO 14004KT 10SM OVC016 08/06 A2998 RMK AO2
KIIB 240635Z AUTO 11005KT 10SM -DZ OVC065 06/03 A3011 RMK AO2 T00600032
KIOW 240552Z AUTO 11004KT 10SM OVC070 07/02 A3013 RMK AO2 RAE07 SLP205 P0000 60000 T00720022 10106 20072 401391028 58006
KIFA 240635Z AUTO 10006KT 10SM RA SCT027 BKN042 OVC050 06/04 A3007 RMK AO2 T00560035
KEOK 240635Z AUTO 14007KT 9SM BKN065 OVC085 09/04 A3011 RMK AO2
KOXV 240635Z AUTO 14007KT 10SM FEW004 OVC035 07/07 A3004 RMK AO2
KLRJ 240635Z AUTO 07008KT 10SM OVC065 07/04 A3001 RMK AO2
KMIW 240553Z AUTO 13008KT 10SM -RA OVC042 07/03 A3006 RMK AO2 RAB24 SLP183 P0000 60000 T00670033 10094 20067 401221044 57012
KMCW 240553Z AUTO 00000KT 10SM OVC080 05/02 A3010 RMK AO2 SLP195 T00500022 10083 20050 401171056 55002
KMCW 240520Z 2406/2506 12005KT P6SM -RA OVC060 
     FM241000 10006KT P6SM -RA OVC025 
     FM241500 06007KT P6SM -RA OVC025 
     FM241800 05009KT P6SM VCSH OVC030 
     FM242300 02011KT P6SM BKN030 
     FM250300 03012KT P6SM BKN015
       
KMPZ 240635Z AUTO 16010KT 10SM BKN065 BKN075 OVC100 08/03 A3011 RMK AO2
KMUT 240635Z AUTO 15006KT 10SM BKN070 OVC075 08/01 A3013 RMK AO2
KTNU 240635Z AUTO 13009KT 10SM BKN046 OVC055 07/04 A3005 RMK AO2
KOLZ 240635Z AUTO 12006KT 8SM SCT033 SCT039 OVC050 05/04 A3011 RMK AO2 PWINO
KI75 240635Z AUTO 13007KT 10SM OVC035 09/07 A3002 RMK AO2 T00850065
KOOA 240635Z AUTO 15009KT 7SM RA SCT060 OVC070 06/04 A3008 RMK AO2 P0001 T00590038
KOTM 240553Z AUTO 13007KT 10SM OVC060 07/03 A3007 RMK AO2 SLP186 60000 T00720028 10100 20072 401441017 58009
KOTM 240520Z 2406/2506 14007KT P6SM -RA OVC050 
     FM240800 14007KT P6SM -RA OVC025 
     FM241000 14007KT P6SM -RA OVC015 
     FM241200 13007KT P6SM -RA OVC008 
     FM241600 12006KT 6SM -RA BR OVC010 
     FM241900 06006KT 5SM -RA BR OVC008 
     FM250000 02009KT P6SM OVC010
       
KPEA 240635Z AUTO 14007KT 7SM RA SCT010 BKN048 OVC055 07/04 A3007 RMK AO2 T00720040
KPRO 240635Z AUTO 10006KT 10SM SCT019 OVC030 07/06 A3002 RMK AO2 T00710055
KRDK 240635Z AUTO 13008KT OVC011 10/10 A2997 RMK AO2
KSHL 240635Z AUTO 07008KT 10SM OVC033 06/06 A3002 RMK AO2
KSDA 240635Z AUTO 16013KT 2 1/2SM BR BKN014 OVC022 10/10 A2995 RMK AO2
KSUX 240552Z AUTO 08007KT 10SM BKN031 OVC041 07/04 A2999 RMK AO2 RAE39 SLP161 P0003 60003 T00670039 10089 20067 401001006 58010
KSUX 240520Z 2406/2506 08006KT P6SM -SHRA OVC025 
     FM240800 05007KT P6SM -SHRA OVC025 
     FM241200 02007KT 5SM -RA BR OVC012 
     FM241400 02008KT P6SM OVC015 
     FM241700 02011KT P6SM OVC025 
     FM242200 02011KT P6SM OVC035 
     FM250000 01007KT P6SM OVC050
       
KSPW 240553Z AUTO 08006KT 10SM OVC038 06/03 A3005 RMK AO2 SLP182 60000 T00560028 10094 20050 401281022 58005
KSLB 240635Z AUTO 06009KT 10SM BKN023 OVC031 05/05 A2998 RMK AO2
KVTI 240615Z AUTO 15006KT 10SM SCT009 BKN050 BKN060 07/02 A3010 RMK AO2 T00690017
KAWG 240635Z AUTO 14009KT 10SM BKN060 OVC070 07/04 A3011 RMK AO2
KALO 240554Z AUTO VRB04KT 10SM OVC080 06/02 A3010 RMK AO2 SLP195 T00610017 10094 20056 401331056 56007
KALO 240520Z 2406/2506 12004KT P6SM -RA OVC070 
     FM240700 12005KT P6SM -RA OVC060 
     FM241000 11006KT P6SM -RA OVC030 
     FM241200 10006KT 4SM -RA BR OVC015 
     FM241400 09006KT 4SM -RA BR OVC008 
     FM241800 07008KT 4SM BR VCSH OVC008 
     FM242000 05008KT 5SM BR VCSH OVC010 
     FM242300 03010KT P6SM OVC020
       
KEBS 240615Z AUTO 11007KT 10SM OVC033 06/05 A3003 RMK AO2